sensor_id;sensor_type;location;lat;lon;timestamp;temperature;humidity
4759;DHT22;2393;50.560;12.636;2022-07-06T00:01:05;15.60;99.90
4759;DHT22;2393;50.560;12.636;2022-07-06T00:03:33;15.60;99.90
4759;DHT22;2393;50.560;12.636;2022-07-06T00:06:02;15.60;99.90
4759;DHT22;2393;50.560;12.636;2022-07-06T00:08:30;15.60;99.90
4759;DHT22;2393;50.560;12.636;2022-07-06T00:10:59;15.60;99.90
4759;DHT22;2393;50.560;12.636;2022-07-06T00:13:27;15.60;99.90
4759;DHT22;2393;50.560;12.636;2022-07-06T00:15:55;15.70;99.90
4759;DHT22;2393;50.560;12.636;2022-07-06T00:18:23;15.70;99.90
4759;DHT22;2393;50.560;12.636;2022-07-06T00:20:53;15.70;99.90
4759;DHT22;2393;50.560;12.636;2022-07-06T00:23:22;15.60;99.90
4759;DHT22;2393;50.560;12.636;2022-07-06T00:25:50;15.60;99.90
4759;DHT22;2393;50.560;12.636;2022-07-06T00:28:18;15.50;99.90
4759;DHT22;2393;50.560;12.636;2022-07-06T00:30:46;15.50;99.90
4759;DHT22;2393;50.560;12.636;2022-07-06T00:33:14;15.50;99.90
4759;DHT22;2393;50.560;12.636;2022-07-06T00:35:42;15.40;99.90
4759;DHT22;2393;50.560;12.636;2022-07-06T00:38:10;15.40;99.90
4759;DHT22;2393;50.560;12.636;2022-07-06T00:40:40;15.30;99.90
4759;DHT22;2393;50.560;12.636;2022-07-06T00:43:08;15.20;99.90
4759;DHT22;2393;50.560;12.636;2022-07-06T00:45:37;15.10;99.90
4759;DHT22;2393;50.560;12.636;2022-07-06T00:48:05;15.10;99.90
4759;DHT22;2393;50.560;12.636;2022-07-06T00:50:34;15.10;99.90
4759;DHT22;2393;50.560;12.636;2022-07-06T00:53:05;15.00;99.90
4759;DHT22;2393;50.560;12.636;2022-07-06T00:55:35;14.90;99.90
4759;DHT22;2393;50.560;12.636;2022-07-06T00:58:08;14.90;99.90
4759;DHT22;2393;50.560;12.636;2022-07-06T01:00:37;14.80;99.90
4759;DHT22;2393;50.560;12.636;2022-07-06T01:03:11;14.80;99.90
4759;DHT22;2393;50.560;12.636;2022-07-06T01:05:39;14.80;99.90
4759;DHT22;2393;50.560;12.636;2022-07-06T01:08:07;14.80;99.90
4759;DHT22;2393;50.560;12.636;2022-07-06T01:10:36;14.80;99.90
4759;DHT22;2393;50.560;12.636;2022-07-06T01:13:04;14.80;99.90
4759;DHT22;2393;50.560;12.636;2022-07-06T01:15:34;14.80;99.90
4759;DHT22;2393;50.560;12.636;2022-07-06T01:18:03;14.80;99.90
4759;DHT22;2393;50.560;12.636;2022-07-06T01:20:33;14.80;99.90
4759;DHT22;2393;50.560;12.636;2022-07-06T01:23:01;14.70;99.90
4759;DHT22;2393;50.560;12.636;2022-07-06T01:25:29;14.70;99.90
4759;DHT22;2393;50.560;12.636;2022-07-06T01:27:57;14.60;99.90
4759;DHT22;2393;50.560;12.636;2022-07-06T01:30:25;14.60;99.90
4759;DHT22;2393;50.560;12.636;2022-07-06T01:32:53;14.50;99.90
4759;DHT22;2393;50.560;12.636;2022-07-06T01:35:25;14.50;99.90
4759;DHT22;2393;50.560;12.636;2022-07-06T01:38:49;14.40;99.90
4759;DHT22;2393;50.560;12.636;2022-07-06T01:41:18;14.40;99.90
4759;DHT22;2393;50.560;12.636;2022-07-06T01:43:47;14.40;99.90
4759;DHT22;2393;50.560;12.636;2022-07-06T01:46:16;14.40;99.90
4759;DHT22;2393;50.560;12.636;2022-07-06T01:48:47;14.40;99.90
4759;DHT22;2393;50.560;12.636;2022-07-06T01:51:15;14.40;99.90
4759;DHT22;2393;50.560;12.636;2022-07-06T01:53:48;14.40;99.90
4759;DHT22;2393;50.560;12.636;2022-07-06T01:56:19;14.40;99.90
4759;DHT22;2393;50.560;12.636;2022-07-06T01:58:51;14.40;99.90
4759;DHT22;2393;50.560;12.636;2022-07-06T02:01:21;14.40;99.90
4759;DHT22;2393;50.560;12.636;2022-07-06T02:03:49;14.40;99.90
4759;DHT22;2393;50.560;12.636;2022-07-06T02:06:18;14.40;99.90
4759;DHT22;2393;50.560;12.636;2022-07-06T02:08:49;14.40;99.90
4759;DHT22;2393;50.560;12.636;2022-07-06T02:11:18;14.40;99.90
4759;DHT22;2393;50.560;12.636;2022-07-06T02:13:46;14.40;99.90
4759;DHT22;2393;50.560;12.636;2022-07-06T02:16:14;14.40;99.90
4759;DHT22;2393;50.560;12.636;2022-07-06T02:18:43;14.00;99.90
4759;DHT22;2393;50.560;12.636;2022-07-06T02:21:11;13.80;99.90
4759;DHT22;2393;50.560;12.636;2022-07-06T02:27:16;13.90;99.90
4759;DHT22;2393;50.560;12.636;2022-07-06T02:29:46;14.00;99.90
4759;DHT22;2393;50.560;12.636;2022-07-06T02:32:14;14.00;99.90
4759;DHT22;2393;50.560;12.636;2022-07-06T02:34:43;14.00;99.90
4759;DHT22;2393;50.560;12.636;2022-07-06T02:37:11;14.10;99.90
4759;DHT22;2393;50.560;12.636;2022-07-06T02:39:39;14.10;99.90
4759;DHT22;2393;50.560;12.636;2022-07-06T02:42:08;14.20;99.90
4759;DHT22;2393;50.560;12.636;2022-07-06T02:44:37;14.10;99.90
4759;DHT22;2393;50.560;12.636;2022-07-06T02:47:05;14.10;99.90
4759;DHT22;2393;50.560;12.636;2022-07-06T02:49:33;14.20;99.90
4759;DHT22;2393;50.560;12.636;2022-07-06T02:52:02;14.10;99.90
4759;DHT22;2393;50.560;12.636;2022-07-06T02:54:31;14.10;99.90
4759;DHT22;2393;50.560;12.636;2022-07-06T02:56:59;14.10;99.90
4759;DHT22;2393;50.560;12.636;2022-07-06T02:59:27;14.10;99.90
4759;DHT22;2393;50.560;12.636;2022-07-06T03:01:57;14.10;99.90
4759;DHT22;2393;50.560;12.636;2022-07-06T03:04:25;14.00;99.90
4759;DHT22;2393;50.560;12.636;2022-07-06T03:06:53;14.00;99.90
4759;DHT22;2393;50.560;12.636;2022-07-06T03:09:21;13.90;99.90
4759;DHT22;2393;50.560;12.636;2022-07-06T03:11:49;13.90;99.90
4759;DHT22;2393;50.560;12.636;2022-07-06T03:14:17;13.80;99.90
4759;DHT22;2393;50.560;12.636;2022-07-06T03:16:48;13.80;99.90
4759;DHT22;2393;50.560;12.636;2022-07-06T03:19:20;13.80;99.90
4759;DHT22;2393;50.560;12.636;2022-07-06T03:21:48;13.70;99.90
4759;DHT22;2393;50.560;12.636;2022-07-06T03:24:17;13.60;99.90
4759;DHT22;2393;50.560;12.636;2022-07-06T03:26:45;13.60;99.90
4759;DHT22;2393;50.560;12.636;2022-07-06T03:29:14;13.60;99.90
4759;DHT22;2393;50.560;12.636;2022-07-06T03:31:42;13.60;99.90
4759;DHT22;2393;50.560;12.636;2022-07-06T03:34:10;13.60;99.90
4759;DHT22;2393;50.560;12.636;2022-07-06T03:36:40;13.60;99.90
4759;DHT22;2393;50.560;12.636;2022-07-06T03:39:08;13.60;99.90
4759;DHT22;2393;50.560;12.636;2022-07-06T03:41:37;13.50;99.90
4759;DHT22;2393;50.560;12.636;2022-07-06T03:44:07;13.50;99.90
4759;DHT22;2393;50.560;12.636;2022-07-06T03:46:36;13.50;99.90
4759;DHT22;2393;50.560;12.636;2022-07-06T03:49:04;13.50;99.90
4759;DHT22;2393;50.560;12.636;2022-07-06T03:51:32;13.50;99.90
4759;DHT22;2393;50.560;12.636;2022-07-06T03:54:01;13.50;99.90
4759;DHT22;2393;50.560;12.636;2022-07-06T03:56:30;13.50;99.90
4759;DHT22;2393;50.560;12.636;2022-07-06T03:59:10;13.50;99.90
4759;DHT22;2393;50.560;12.636;2022-07-06T04:01:39;13.50;99.90
4759;DHT22;2393;50.560;12.636;2022-07-06T04:04:11;13.50;99.90
4759;DHT22;2393;50.560;12.636;2022-07-06T04:06:42;13.40;99.90
4759;DHT22;2393;50.560;12.636;2022-07-06T04:09:12;13.50;99.90
4759;DHT22;2393;50.560;12.636;2022-07-06T04:11:41;13.40;99.90
4759;DHT22;2393;50.560;12.636;2022-07-06T04:14:09;13.40;99.90
4759;DHT22;2393;50.560;12.636;2022-07-06T04:16:37;13.40;99.90
4759;DHT22;2393;50.560;12.636;2022-07-06T04:19:07;13.40;99.90
4759;DHT22;2393;50.560;12.636;2022-07-06T04:21:35;13.50;99.90
4759;DHT22;2393;50.560;12.636;2022-07-06T04:24:04;13.50;99.90
4759;DHT22;2393;50.560;12.636;2022-07-06T04:26:35;13.60;99.90
4759;DHT22;2393;50.560;12.636;2022-07-06T04:29:04;13.70;99.90
4759;DHT22;2393;50.560;12.636;2022-07-06T04:31:32;13.80;99.90
4759;DHT22;2393;50.560;12.636;2022-07-06T04:34:00;13.90;99.90
4759;DHT22;2393;50.560;12.636;2022-07-06T04:36:29;14.00;99.90
4759;DHT22;2393;50.560;12.636;2022-07-06T04:38:58;14.10;99.90
4759;DHT22;2393;50.560;12.636;2022-07-06T04:41:27;14.20;99.90
4759;DHT22;2393;50.560;12.636;2022-07-06T04:43:57;14.30;99.90
4759;DHT22;2393;50.560;12.636;2022-07-06T04:46:25;14.40;99.90
4759;DHT22;2393;50.560;12.636;2022-07-06T04:48:53;14.50;99.90
4759;DHT22;2393;50.560;12.636;2022-07-06T04:51:30;14.70;99.90
4759;DHT22;2393;50.560;12.636;2022-07-06T04:53:59;14.90;99.90
4759;DHT22;2393;50.560;12.636;2022-07-06T04:56:27;15.10;99.90
4759;DHT22;2393;50.560;12.636;2022-07-06T04:58:58;15.30;99.90
4759;DHT22;2393;50.560;12.636;2022-07-06T05:01:27;15.50;99.90
4759;DHT22;2393;50.560;12.636;2022-07-06T05:03:55;15.70;99.90
4759;DHT22;2393;50.560;12.636;2022-07-06T05:06:24;15.90;99.90
4759;DHT22;2393;50.560;12.636;2022-07-06T05:08:52;16.10;99.90
4759;DHT22;2393;50.560;12.636;2022-07-06T05:11:20;16.40;99.90
4759;DHT22;2393;50.560;12.636;2022-07-06T05:13:50;16.50;99.90
4759;DHT22;2393;50.560;12.636;2022-07-06T05:16:19;16.70;99.90
4759;DHT22;2393;50.560;12.636;2022-07-06T05:18:47;16.80;99.90
4759;DHT22;2393;50.560;12.636;2022-07-06T05:21:16;17.00;99.90
4759;DHT22;2393;50.560;12.636;2022-07-06T05:23:44;17.10;99.90
4759;DHT22;2393;50.560;12.636;2022-07-06T05:26:12;17.20;99.90
4759;DHT22;2393;50.560;12.636;2022-07-06T05:28:41;17.40;99.90
4759;DHT22;2393;50.560;12.636;2022-07-06T05:31:13;17.50;99.90
4759;DHT22;2393;50.560;12.636;2022-07-06T05:33:43;17.60;99.90
4759;DHT22;2393;50.560;12.636;2022-07-06T05:36:11;17.70;99.90
4759;DHT22;2393;50.560;12.636;2022-07-06T05:38:40;17.80;99.90
4759;DHT22;2393;50.560;12.636;2022-07-06T05:41:08;17.90;99.90
4759;DHT22;2393;50.560;12.636;2022-07-06T05:43:38;18.00;99.90
4759;DHT22;2393;50.560;12.636;2022-07-06T05:46:06;18.10;99.90
4759;DHT22;2393;50.560;12.636;2022-07-06T05:48:36;18.20;99.90
4759;DHT22;2393;50.560;12.636;2022-07-06T05:51:24;18.20;99.90
4759;DHT22;2393;50.560;12.636;2022-07-06T05:53:53;18.30;99.90
4759;DHT22;2393;50.560;12.636;2022-07-06T05:56:21;18.40;99.90
4759;DHT22;2393;50.560;12.636;2022-07-06T05:58:51;18.50;99.90
4759;DHT22;2393;50.560;12.636;2022-07-06T06:01:19;18.60;99.90
4759;DHT22;2393;50.560;12.636;2022-07-06T06:03:56;18.70;99.90
4759;DHT22;2393;50.560;12.636;2022-07-06T06:06:27;18.80;99.90
4759;DHT22;2393;50.560;12.636;2022-07-06T06:08:58;18.90;99.90
4759;DHT22;2393;50.560;12.636;2022-07-06T06:11:26;18.90;99.90
4759;DHT22;2393;50.560;12.636;2022-07-06T06:13:54;19.00;99.90
4759;DHT22;2393;50.560;12.636;2022-07-06T06:16:22;19.10;99.90
4759;DHT22;2393;50.560;12.636;2022-07-06T06:18:52;19.20;99.90
4759;DHT22;2393;50.560;12.636;2022-07-06T06:21:23;19.30;99.90
4759;DHT22;2393;50.560;12.636;2022-07-06T06:23:55;19.40;99.90
4759;DHT22;2393;50.560;12.636;2022-07-06T06:26:45;19.40;99.90
4759;DHT22;2393;50.560;12.636;2022-07-06T06:29:20;19.30;99.90
4759;DHT22;2393;50.560;12.636;2022-07-06T06:32:00;19.40;99.90
4759;DHT22;2393;50.560;12.636;2022-07-06T06:34:29;19.60;99.90
4759;DHT22;2393;50.560;12.636;2022-07-06T06:36:59;19.80;99.90
4759;DHT22;2393;50.560;12.636;2022-07-06T06:39:29;19.90;99.90
4759;DHT22;2393;50.560;12.636;2022-07-06T06:43:36;19.90;99.90
4759;DHT22;2393;50.560;12.636;2022-07-06T06:46:11;20.00;99.90
4759;DHT22;2393;50.560;12.636;2022-07-06T06:48:40;20.20;99.90
4759;DHT22;2393;50.560;12.636;2022-07-06T06:51:09;20.40;99.90
4759;DHT22;2393;50.560;12.636;2022-07-06T06:53:37;20.60;99.90
4759;DHT22;2393;50.560;12.636;2022-07-06T06:56:08;20.80;99.90
4759;DHT22;2393;50.560;12.636;2022-07-06T06:58:36;20.90;99.90
4759;DHT22;2393;50.560;12.636;2022-07-06T07:01:24;20.90;99.90
4759;DHT22;2393;50.560;12.636;2022-07-06T07:03:53;20.60;99.90
4759;DHT22;2393;50.560;12.636;2022-07-06T07:06:22;20.40;99.90
4759;DHT22;2393;50.560;12.636;2022-07-06T07:08:50;20.20;99.90
4759;DHT22;2393;50.560;12.636;2022-07-06T07:11:19;20.10;99.90
4759;DHT22;2393;50.560;12.636;2022-07-06T07:13:50;20.00;99.90
4759;DHT22;2393;50.560;12.636;2022-07-06T07:16:18;19.80;99.90
4759;DHT22;2393;50.560;12.636;2022-07-06T07:18:49;19.80;99.90
4759;DHT22;2393;50.560;12.636;2022-07-06T07:21:18;19.70;99.90
4759;DHT22;2393;50.560;12.636;2022-07-06T07:23:46;19.70;99.90
4759;DHT22;2393;50.560;12.636;2022-07-06T07:26:15;19.70;99.90
4759;DHT22;2393;50.560;12.636;2022-07-06T07:28:44;19.80;99.90
4759;DHT22;2393;50.560;12.636;2022-07-06T07:31:15;19.70;99.90
4759;DHT22;2393;50.560;12.636;2022-07-06T07:33:45;19.50;99.90
4759;DHT22;2393;50.560;12.636;2022-07-06T07:36:19;19.30;99.90
4759;DHT22;2393;50.560;12.636;2022-07-06T07:38:50;19.10;99.90
4759;DHT22;2393;50.560;12.636;2022-07-06T07:41:18;19.00;99.90
4759;DHT22;2393;50.560;12.636;2022-07-06T07:43:48;19.20;99.90
4759;DHT22;2393;50.560;12.636;2022-07-06T07:46:18;19.40;99.90
4759;DHT22;2393;50.560;12.636;2022-07-06T07:48:46;19.50;99.90
4759;DHT22;2393;50.560;12.636;2022-07-06T07:51:15;19.50;99.90
4759;DHT22;2393;50.560;12.636;2022-07-06T07:53:43;19.50;99.90
4759;DHT22;2393;50.560;12.636;2022-07-06T07:56:11;19.60;99.90
4759;DHT22;2393;50.560;12.636;2022-07-06T07:58:41;19.50;99.90
4759;DHT22;2393;50.560;12.636;2022-07-06T08:01:11;19.50;99.90
4759;DHT22;2393;50.560;12.636;2022-07-06T08:03:39;19.70;99.90
4759;DHT22;2393;50.560;12.636;2022-07-06T08:06:07;19.70;99.90
4759;DHT22;2393;50.560;12.636;2022-07-06T08:08:36;19.70;99.90
4759;DHT22;2393;50.560;12.636;2022-07-06T08:11:04;19.50;99.90
4759;DHT22;2393;50.560;12.636;2022-07-06T08:13:44;19.40;99.90
4759;DHT22;2393;50.560;12.636;2022-07-06T08:16:13;19.30;99.90
4759;DHT22;2393;50.560;12.636;2022-07-06T08:18:41;19.20;99.90
4759;DHT22;2393;50.560;12.636;2022-07-06T08:21:09;19.20;99.90
4759;DHT22;2393;50.560;12.636;2022-07-06T08:23:55;19.10;99.90
4759;DHT22;2393;50.560;12.636;2022-07-06T08:26:23;19.20;99.90
4759;DHT22;2393;50.560;12.636;2022-07-06T08:28:52;19.50;99.90
4759;DHT22;2393;50.560;12.636;2022-07-06T08:31:21;19.70;99.90
4759;DHT22;2393;50.560;12.636;2022-07-06T08:34:09;20.00;99.90
4759;DHT22;2393;50.560;12.636;2022-07-06T08:36:37;20.20;99.90
4759;DHT22;2393;50.560;12.636;2022-07-06T08:39:05;20.40;99.90
4759;DHT22;2393;50.560;12.636;2022-07-06T08:41:35;20.60;99.90
4759;DHT22;2393;50.560;12.636;2022-07-06T08:44:04;20.50;99.90
4759;DHT22;2393;50.560;12.636;2022-07-06T08:46:35;20.50;99.90
4759;DHT22;2393;50.560;12.636;2022-07-06T08:49:07;20.50;99.90
4759;DHT22;2393;50.560;12.636;2022-07-06T08:51:35;20.60;99.90
4759;DHT22;2393;50.560;12.636;2022-07-06T08:54:04;20.50;99.90
4759;DHT22;2393;50.560;12.636;2022-07-06T08:56:32;20.40;99.90
4759;DHT22;2393;50.560;12.636;2022-07-06T08:59:00;20.30;99.90
4759;DHT22;2393;50.560;12.636;2022-07-06T09:01:28;20.40;99.90
4759;DHT22;2393;50.560;12.636;2022-07-06T09:03:58;20.50;99.90
4759;DHT22;2393;50.560;12.636;2022-07-06T09:06:27;20.60;99.90
4759;DHT22;2393;50.560;12.636;2022-07-06T09:08:57;20.60;99.90
4759;DHT22;2393;50.560;12.636;2022-07-06T09:11:25;20.60;99.90
4759;DHT22;2393;50.560;12.636;2022-07-06T09:13:53;20.60;99.90
4759;DHT22;2393;50.560;12.636;2022-07-06T09:16:26;20.90;99.90
4759;DHT22;2393;50.560;12.636;2022-07-06T09:19:09;21.10;99.90
4759;DHT22;2393;50.560;12.636;2022-07-06T09:21:37;21.20;99.90
4759;DHT22;2393;50.560;12.636;2022-07-06T09:24:09;21.10;99.90
4759;DHT22;2393;50.560;12.636;2022-07-06T09:26:37;21.10;99.90
4759;DHT22;2393;50.560;12.636;2022-07-06T09:29:05;21.00;99.90
4759;DHT22;2393;50.560;12.636;2022-07-06T09:31:34;20.80;99.90
4759;DHT22;2393;50.560;12.636;2022-07-06T09:34:03;20.60;99.90
4759;DHT22;2393;50.560;12.636;2022-07-06T09:36:42;20.40;99.90
4759;DHT22;2393;50.560;12.636;2022-07-06T09:39:19;20.50;99.90
4759;DHT22;2393;50.560;12.636;2022-07-06T09:41:48;20.80;99.90
4759;DHT22;2393;50.560;12.636;2022-07-06T09:44:23;20.90;99.90
4759;DHT22;2393;50.560;12.636;2022-07-06T09:46:53;20.90;99.90
4759;DHT22;2393;50.560;12.636;2022-07-06T09:49:22;20.80;99.90
4759;DHT22;2393;50.560;12.636;2022-07-06T09:51:53;20.60;99.90
4759;DHT22;2393;50.560;12.636;2022-07-06T09:54:22;20.40;99.90
4759;DHT22;2393;50.560;12.636;2022-07-06T09:56:52;20.30;99.90
4759;DHT22;2393;50.560;12.636;2022-07-06T09:59:21;20.20;99.90
4759;DHT22;2393;50.560;12.636;2022-07-06T10:01:52;20.10;99.90
4759;DHT22;2393;50.560;12.636;2022-07-06T10:04:22;20.00;99.90
4759;DHT22;2393;50.560;12.636;2022-07-06T10:06:51;20.00;99.90
4759;DHT22;2393;50.560;12.636;2022-07-06T10:09:21;20.00;99.90
4759;DHT22;2393;50.560;12.636;2022-07-06T10:11:52;20.20;99.90
4759;DHT22;2393;50.560;12.636;2022-07-06T10:14:21;20.60;99.90
4759;DHT22;2393;50.560;12.636;2022-07-06T10:16:51;20.90;99.90
4759;DHT22;2393;50.560;12.636;2022-07-06T10:19:20;21.20;99.90
4759;DHT22;2393;50.560;12.636;2022-07-06T10:21:49;21.30;99.90
4759;DHT22;2393;50.560;12.636;2022-07-06T10:24:20;21.50;99.90
4759;DHT22;2393;50.560;12.636;2022-07-06T10:26:49;21.70;99.90
4759;DHT22;2393;50.560;12.636;2022-07-06T10:29:17;22.00;99.90
4759;DHT22;2393;50.560;12.636;2022-07-06T10:31:47;22.20;99.90
4759;DHT22;2393;50.560;12.636;2022-07-06T10:34:18;22.40;99.90
4759;DHT22;2393;50.560;12.636;2022-07-06T10:36:49;22.50;99.90
4759;DHT22;2393;50.560;12.636;2022-07-06T10:39:32;22.50;99.40
4759;DHT22;2393;50.560;12.636;2022-07-06T10:42:39;22.50;99.90
4759;DHT22;2393;50.560;12.636;2022-07-06T10:45:08;22.60;99.90
4759;DHT22;2393;50.560;12.636;2022-07-06T10:47:37;22.70;99.90
4759;DHT22;2393;50.560;12.636;2022-07-06T10:50:06;22.60;98.30
4759;DHT22;2393;50.560;12.636;2022-07-06T10:52:49;22.50;99.90
4759;DHT22;2393;50.560;12.636;2022-07-06T10:55:34;22.70;98.70
4759;DHT22;2393;50.560;12.636;2022-07-06T10:58:03;22.70;98.80
4759;DHT22;2393;50.560;12.636;2022-07-06T11:00:51;22.40;97.30
4759;DHT22;2393;50.560;12.636;2022-07-06T11:03:31;22.40;98.60
4759;DHT22;2393;50.560;12.636;2022-07-06T11:06:00;22.40;98.30
4759;DHT22;2393;50.560;12.636;2022-07-06T11:08:51;22.30;97.40
4759;DHT22;2393;50.560;12.636;2022-07-06T11:11:22;22.30;98.30
4759;DHT22;2393;50.560;12.636;2022-07-06T11:13:58;22.10;97.40
4759;DHT22;2393;50.560;12.636;2022-07-06T11:16:29;22.10;97.70
4759;DHT22;2393;50.560;12.636;2022-07-06T11:19:04;22.10;98.20
4759;DHT22;2393;50.560;12.636;2022-07-06T11:21:35;22.00;98.10
4759;DHT22;2393;50.560;12.636;2022-07-06T11:24:04;21.90;98.60
4759;DHT22;2393;50.560;12.636;2022-07-06T11:26:35;21.80;98.60
4759;DHT22;2393;50.560;12.636;2022-07-06T11:29:08;21.90;98.70
4759;DHT22;2393;50.560;12.636;2022-07-06T11:31:37;21.90;98.90
4759;DHT22;2393;50.560;12.636;2022-07-06T11:34:07;22.00;98.40
4759;DHT22;2393;50.560;12.636;2022-07-06T11:36:36;22.20;98.20
4759;DHT22;2393;50.560;12.636;2022-07-06T11:39:11;22.40;98.70
4759;DHT22;2393;50.560;12.636;2022-07-06T11:41:41;22.50;96.90
4759;DHT22;2393;50.560;12.636;2022-07-06T11:44:18;22.20;97.60
4759;DHT22;2393;50.560;12.636;2022-07-06T11:46:46;22.30;98.40
4759;DHT22;2393;50.560;12.636;2022-07-06T11:49:14;22.50;98.70
4759;DHT22;2393;50.560;12.636;2022-07-06T11:51:45;22.50;97.40
4759;DHT22;2393;50.560;12.636;2022-07-06T11:54:14;22.50;97.20
4759;DHT22;2393;50.560;12.636;2022-07-06T11:56:48;22.40;97.30
4759;DHT22;2393;50.560;12.636;2022-07-06T11:59:20;22.20;96.90
4759;DHT22;2393;50.560;12.636;2022-07-06T12:01:48;22.00;97.00
4759;DHT22;2393;50.560;12.636;2022-07-06T12:04:16;22.10;97.70
4759;DHT22;2393;50.560;12.636;2022-07-06T12:06:45;22.30;96.60
4759;DHT22;2393;50.560;12.636;2022-07-06T12:09:13;22.30;97.20
4759;DHT22;2393;50.560;12.636;2022-07-06T12:11:45;22.40;97.70
4759;DHT22;2393;50.560;12.636;2022-07-06T12:14:17;22.50;98.20
4759;DHT22;2393;50.560;12.636;2022-07-06T12:16:47;22.60;97.30
4759;DHT22;2393;50.560;12.636;2022-07-06T12:19:16;22.50;96.50
4759;DHT22;2393;50.560;12.636;2022-07-06T12:21:46;22.70;97.50
4759;DHT22;2393;50.560;12.636;2022-07-06T12:24:19;22.90;97.30
4759;DHT22;2393;50.560;12.636;2022-07-06T12:26:47;23.00;98.30
4759;DHT22;2393;50.560;12.636;2022-07-06T12:29:17;22.90;96.80
4759;DHT22;2393;50.560;12.636;2022-07-06T12:31:49;22.90;96.70
4759;DHT22;2393;50.560;12.636;2022-07-06T12:34:19;23.10;98.20
4759;DHT22;2393;50.560;12.636;2022-07-06T12:36:48;23.30;97.00
4759;DHT22;2393;50.560;12.636;2022-07-06T12:39:18;23.50;97.10
4759;DHT22;2393;50.560;12.636;2022-07-06T12:41:48;23.70;96.00
4759;DHT22;2393;50.560;12.636;2022-07-06T12:44:19;23.80;97.10
4759;DHT22;2393;50.560;12.636;2022-07-06T12:46:49;23.80;96.30
4759;DHT22;2393;50.560;12.636;2022-07-06T12:49:19;24.00;96.60
4759;DHT22;2393;50.560;12.636;2022-07-06T12:51:55;24.30;95.60
4759;DHT22;2393;50.560;12.636;2022-07-06T12:54:25;24.50;96.50
4759;DHT22;2393;50.560;12.636;2022-07-06T12:57:04;24.60;95.00
4759;DHT22;2393;50.560;12.636;2022-07-06T12:59:40;24.50;93.70
4759;DHT22;2393;50.560;12.636;2022-07-06T13:02:16;24.40;95.00
4759;DHT22;2393;50.560;12.636;2022-07-06T13:04:54;24.50;95.10
4759;DHT22;2393;50.560;12.636;2022-07-06T13:07:22;24.80;95.50
4759;DHT22;2393;50.560;12.636;2022-07-06T13:09:50;25.00;94.80
4759;DHT22;2393;50.560;12.636;2022-07-06T13:12:18;25.00;93.70
4759;DHT22;2393;50.560;12.636;2022-07-06T13:14:48;25.00;92.90
4759;DHT22;2393;50.560;12.636;2022-07-06T13:17:16;24.60;92.70
4759;DHT22;2393;50.560;12.636;2022-07-06T13:19:44;24.30;92.90
4759;DHT22;2393;50.560;12.636;2022-07-06T13:22:12;24.10;93.20
4759;DHT22;2393;50.560;12.636;2022-07-06T13:24:43;23.90;93.30
4759;DHT22;2393;50.560;12.636;2022-07-06T13:27:11;23.90;93.20
4759;DHT22;2393;50.560;12.636;2022-07-06T13:29:39;24.00;93.50
4759;DHT22;2393;50.560;12.636;2022-07-06T13:32:09;24.20;94.50
4759;DHT22;2393;50.560;12.636;2022-07-06T13:34:37;24.20;93.70
4759;DHT22;2393;50.560;12.636;2022-07-06T13:37:05;24.10;93.20
4759;DHT22;2393;50.560;12.636;2022-07-06T13:39:33;24.00;94.30
4759;DHT22;2393;50.560;12.636;2022-07-06T13:42:01;24.00;94.00
4759;DHT22;2393;50.560;12.636;2022-07-06T13:44:29;24.00;94.00
4759;DHT22;2393;50.560;12.636;2022-07-06T13:46:57;24.00;93.70
4759;DHT22;2393;50.560;12.636;2022-07-06T13:49:27;24.00;93.50
4759;DHT22;2393;50.560;12.636;2022-07-06T13:51:58;24.10;94.00
4759;DHT22;2393;50.560;12.636;2022-07-06T13:54:31;24.00;93.40
4759;DHT22;2393;50.560;12.636;2022-07-06T13:57:01;24.00;94.30
4759;DHT22;2393;50.560;12.636;2022-07-06T13:59:30;24.20;95.20
4759;DHT22;2393;50.560;12.636;2022-07-06T14:01:59;24.40;93.00
4759;DHT22;2393;50.560;12.636;2022-07-06T14:04:28;24.40;93.00
4759;DHT22;2393;50.560;12.636;2022-07-06T14:06:56;24.30;92.60
4759;DHT22;2393;50.560;12.636;2022-07-06T14:09:24;24.10;92.70
4759;DHT22;2393;50.560;12.636;2022-07-06T14:11:52;23.90;92.80
4759;DHT22;2393;50.560;12.636;2022-07-06T14:14:20;23.90;93.60
4759;DHT22;2393;50.560;12.636;2022-07-06T14:16:48;24.00;93.70
4759;DHT22;2393;50.560;12.636;2022-07-06T14:19:18;24.10;94.10
4759;DHT22;2393;50.560;12.636;2022-07-06T14:21:49;24.20;93.40
4759;DHT22;2393;50.560;12.636;2022-07-06T14:24:17;24.40;93.70
4759;DHT22;2393;50.560;12.636;2022-07-06T14:26:45;24.30;92.90
4759;DHT22;2393;50.560;12.636;2022-07-06T14:29:13;24.20;92.70
4759;DHT22;2393;50.560;12.636;2022-07-06T14:31:41;24.10;93.10
4759;DHT22;2393;50.560;12.636;2022-07-06T14:34:09;24.00;92.50
4759;DHT22;2393;50.560;12.636;2022-07-06T14:36:36;24.00;93.10
4759;DHT22;2393;50.560;12.636;2022-07-06T14:39:07;23.80;93.10
4759;DHT22;2393;50.560;12.636;2022-07-06T14:41:35;23.50;93.20
4759;DHT22;2393;50.560;12.636;2022-07-06T14:44:03;23.50;92.80
4759;DHT22;2393;50.560;12.636;2022-07-06T14:46:31;23.40;93.00
4759;DHT22;2393;50.560;12.636;2022-07-06T14:49:01;23.40;93.40
4759;DHT22;2393;50.560;12.636;2022-07-06T14:51:29;23.50;93.60
4759;DHT22;2393;50.560;12.636;2022-07-06T14:53:57;23.60;92.80
4759;DHT22;2393;50.560;12.636;2022-07-06T14:56:26;23.70;93.80
4759;DHT22;2393;50.560;12.636;2022-07-06T14:58:54;23.90;92.40
4759;DHT22;2393;50.560;12.636;2022-07-06T15:01:42;23.90;92.40
4759;DHT22;2393;50.560;12.636;2022-07-06T15:04:10;24.00;91.20
4759;DHT22;2393;50.560;12.636;2022-07-06T15:06:39;23.90;92.20
4759;DHT22;2393;50.560;12.636;2022-07-06T15:09:21;23.90;91.40
4759;DHT22;2393;50.560;12.636;2022-07-06T15:11:51;23.60;91.20
4759;DHT22;2393;50.560;12.636;2022-07-06T15:14:19;23.40;91.90
4759;DHT22;2393;50.560;12.636;2022-07-06T15:16:47;23.10;92.20
4759;DHT22;2393;50.560;12.636;2022-07-06T15:19:16;23.10;92.50
4759;DHT22;2393;50.560;12.636;2022-07-06T15:21:44;23.00;93.00
4759;DHT22;2393;50.560;12.636;2022-07-06T15:24:12;23.10;93.30
4759;DHT22;2393;50.560;12.636;2022-07-06T15:26:40;23.00;91.60
4759;DHT22;2393;50.560;12.636;2022-07-06T15:29:10;23.00;92.00
4759;DHT22;2393;50.560;12.636;2022-07-06T15:31:38;23.10;92.50
4759;DHT22;2393;50.560;12.636;2022-07-06T15:34:06;23.00;92.10
4759;DHT22;2393;50.560;12.636;2022-07-06T15:36:34;22.80;91.90
4759;DHT22;2393;50.560;12.636;2022-07-06T15:39:02;22.70;91.90
4759;DHT22;2393;50.560;12.636;2022-07-06T15:41:31;22.80;92.50
4759;DHT22;2393;50.560;12.636;2022-07-06T15:43:59;22.80;91.80
4759;DHT22;2393;50.560;12.636;2022-07-06T15:46:28;22.70;91.90
4759;DHT22;2393;50.560;12.636;2022-07-06T15:48:57;22.80;91.90
4759;DHT22;2393;50.560;12.636;2022-07-06T15:51:26;22.80;92.30
4759;DHT22;2393;50.560;12.636;2022-07-06T15:53:53;22.90;91.50
4759;DHT22;2393;50.560;12.636;2022-07-06T15:56:22;23.00;91.40
4759;DHT22;2393;50.560;12.636;2022-07-06T15:58:50;23.10;92.10
4759;DHT22;2393;50.560;12.636;2022-07-06T16:01:18;23.20;91.30
4759;DHT22;2393;50.560;12.636;2022-07-06T16:03:48;23.10;91.00
4759;DHT22;2393;50.560;12.636;2022-07-06T16:06:21;22.90;91.30
4759;DHT22;2393;50.560;12.636;2022-07-06T16:08:49;22.90;91.10